createdAt,value
2022-11-07T00:02:52.148Z,7.45
2022-11-07T00:06:53.845Z,7.15
2022-11-07T00:10:55.395Z,8.00
2022-11-07T00:14:56.946Z,7.60
2022-11-07T00:18:58.542Z,6.82
2022-11-07T00:23:00.159Z,8.18
2022-11-07T00:27:01.951Z,7.10
2022-11-07T00:31:04.506Z,7.72
2022-11-07T00:35:06.233Z,7.50
2022-11-07T00:39:09.657Z,7.38
2022-11-07T00:43:11.712Z,8.10
2022-11-07T00:47:13.554Z,7.78
2022-11-07T00:51:25.022Z,7.65
2022-11-07T00:55:26.685Z,7.47
2022-11-07T00:59:28.177Z,7.88
2022-11-07T01:03:48.834Z,7.57
2022-11-07T01:07:50.390Z,8.63
2022-11-07T01:11:52.090Z,8.57
2022-11-07T01:15:54.154Z,8.60
2022-11-07T01:19:55.659Z,8.13
2022-11-07T01:23:57.599Z,8.75
2022-11-07T01:27:59.074Z,8.52
2022-11-07T01:32:00.544Z,8.27
2022-11-07T01:36:08.682Z,10.77
2022-11-07T01:40:10.902Z,9.32
2022-11-07T01:44:12.432Z,9.77
2022-11-07T01:48:14.170Z,9.75
2022-11-07T01:52:23.972Z,9.15
2022-11-07T01:56:31.789Z,9.38
2022-11-07T02:00:35.453Z,9.57
2022-11-07T02:04:37.799Z,10.02
2022-11-07T02:08:40.187Z,10.50
2022-11-07T02:12:42.247Z,9.70
2022-11-07T02:16:44.556Z,10.07
2022-11-07T02:20:46.586Z,9.55
2022-11-07T02:24:52.786Z,9.90
2022-11-07T02:32:57.093Z,10.15
2022-11-07T02:37:00.834Z,9.48
2022-11-07T02:41:12.999Z,9.57
2022-11-07T02:45:26.692Z,9.48
2022-11-07T02:49:28.304Z,9.38
2022-11-07T02:53:29.820Z,10.05
2022-11-07T02:57:31.654Z,10.05
2022-11-07T03:01:33.226Z,10.02
2022-11-07T03:05:34.820Z,9.68
2022-11-07T03:09:36.284Z,10.23
2022-11-07T03:13:38.769Z,9.65
2022-11-07T03:17:41.177Z,10.80
2022-11-07T03:21:42.772Z,10.88
2022-11-07T03:25:44.340Z,9.75
2022-11-07T03:29:46.076Z,10.85
2022-11-07T03:33:47.574Z,10.82
2022-11-07T03:37:49.695Z,9.85
2022-11-07T03:41:51.509Z,9.85
2022-11-07T03:45:53.008Z,9.18
2022-11-07T03:49:54.539Z,10.70
2022-11-07T03:53:56.006Z,9.40
2022-11-07T03:57:57.520Z,10.57
2022-11-07T04:01:59.233Z,9.35
2022-11-07T04:06:00.909Z,8.65
2022-11-07T04:10:02.516Z,10.63
2022-11-07T04:14:35.979Z,11.05
2022-11-07T04:18:37.568Z,9.23
2022-11-07T04:22:39.136Z,9.70
2022-11-07T04:26:59.296Z,9.98
2022-11-07T04:31:00.803Z,9.07
2022-11-07T04:35:02.482Z,8.85
2022-11-07T04:39:04.042Z,9.73
2022-11-07T04:43:09.177Z,9.30
2022-11-07T04:47:10.887Z,8.82
2022-11-07T04:51:19.880Z,10.63
2022-11-07T04:55:24.263Z,8.95
2022-11-07T04:59:25.871Z,8.88
2022-11-07T05:03:27.439Z,9.00
2022-11-07T05:07:29.059Z,10.05
2022-11-07T05:11:30.577Z,9.27
2022-11-07T05:15:32.030Z,8.02
2022-11-07T05:19:33.545Z,9.95
2022-11-07T05:23:35.046Z,9.48
2022-11-07T05:27:36.607Z,8.90
2022-11-07T05:31:38.110Z,8.95
2022-11-07T05:35:39.681Z,10.27
2022-11-07T05:39:41.352Z,9.80
2022-11-07T05:43:43.263Z,9.18
2022-11-07T05:47:44.914Z,9.55
2022-11-07T05:51:46.597Z,9.13
2022-11-07T05:55:52.574Z,10.10
2022-11-07T05:59:54.131Z,9.13
2022-11-07T06:03:55.570Z,9.25
2022-11-07T06:07:57.457Z,9.93
2022-11-07T06:11:59.098Z,9.63
2022-11-07T06:16:00.543Z,9.57
2022-11-07T06:20:02.421Z,9.80
2022-11-07T06:24:04.335Z,9.88
2022-11-07T06:28:08.956Z,10.60
2022-11-07T06:32:10.643Z,9.80
2022-11-07T06:36:12.816Z,10.50
2022-11-07T06:40:14.377Z,10.63
2022-11-07T06:44:17.463Z,10.18
2022-11-07T06:48:19.031Z,9.95
2022-11-07T06:52:20.551Z,10.25
2022-11-07T06:56:22.114Z,9.20
2022-11-07T07:00:23.871Z,9.50
2022-11-07T07:04:25.479Z,9.07
2022-11-07T07:08:27.263Z,9.60
2022-11-07T07:12:28.915Z,9.05
2022-11-07T07:16:30.545Z,9.00
2022-11-07T07:20:32.229Z,8.80
2022-11-07T07:24:33.980Z,8.90
2022-11-07T07:28:37.296Z,8.10
2022-11-07T07:32:38.878Z,7.70
2022-11-07T07:36:40.362Z,8.38
2022-11-07T07:40:41.962Z,7.53
2022-11-07T07:44:43.654Z,8.27
2022-11-07T07:48:45.138Z,6.97
2022-11-07T07:52:46.797Z,7.78
2022-11-07T07:56:48.533Z,6.97
2022-11-07T08:00:52.659Z,7.63
2022-11-07T08:04:54.291Z,7.00
2022-11-07T08:08:55.890Z,7.38
2022-11-07T08:12:57.621Z,7.15
2022-11-07T08:16:59.362Z,7.40
2022-11-07T08:21:00.985Z,7.40
2022-11-07T08:25:02.890Z,6.10
2022-11-07T08:29:05.189Z,6.60
2022-11-07T08:33:06.786Z,6.15
2022-11-07T08:37:08.454Z,5.82
2022-11-07T08:41:09.946Z,6.47
2022-11-07T08:45:11.669Z,6.03
2022-11-07T08:49:14.328Z,5.88
2022-11-07T08:53:16.153Z,6.28
2022-11-07T08:57:18.387Z,5.82
2022-11-07T09:01:20.133Z,5.88
2022-11-07T09:05:21.898Z,4.97
2022-11-07T09:09:23.682Z,6.00
2022-11-07T09:13:25.267Z,5.03
2022-11-07T09:17:27.471Z,4.35
2022-11-07T09:21:29.014Z,4.00
2022-11-07T09:25:30.571Z,4.68
2022-11-07T09:29:32.412Z,3.50
2022-11-07T09:33:34.127Z,3.05
2022-11-07T09:37:39.558Z,3.13
2022-11-07T09:41:55.988Z,2.92
2022-11-07T09:46:16.564Z,3.35
2022-11-07T09:50:41.154Z,3.00
2022-11-07T09:54:53.249Z,3.22
2022-11-07T09:58:58.918Z,2.90
2022-11-07T10:03:02.636Z,2.40
2022-11-07T10:07:12.911Z,2.20
2022-11-07T10:11:35.321Z,1.80
2022-11-07T10:15:58.443Z,1.70
2022-11-07T10:24:39.035Z,1.40
2022-11-07T10:28:59.341Z,1.40
2022-11-07T10:33:28.542Z,1.38
2022-11-07T10:37:30.664Z,1.20
2022-11-07T10:41:34.326Z,1.23
2022-11-07T10:45:37.323Z,1.45
2022-11-07T10:49:39.936Z,1.27
2022-11-07T10:53:45.413Z,1.33
2022-11-07T10:57:52.825Z,1.23
2022-11-07T11:01:57.279Z,1.30
2022-11-07T11:06:12.516Z,1.52
2022-11-07T11:10:24.887Z,1.20
2022-11-07T11:14:26.549Z,1.15
2022-11-07T11:18:28.210Z,0.93
2022-11-07T11:22:30.180Z,1.20
2022-11-07T11:26:40.452Z,1.50
2022-11-07T11:30:44.205Z,0.98
2022-11-07T11:34:55.625Z,1.20
2022-11-07T11:39:05.300Z,1.27
2022-11-07T11:43:19.371Z,1.17
2022-11-07T11:47:25.636Z,1.25
2022-11-07T11:51:40.513Z,1.15
2022-11-07T11:56:09.601Z,1.20
2022-11-07T12:00:16.738Z,1.30
2022-11-07T12:04:37.493Z,1.40
2022-11-07T12:08:51.624Z,1.13
2022-11-07T12:13:09.347Z,1.40
2022-11-07T12:21:35.631Z,1.15
2022-11-07T12:25:49.998Z,1.00
2022-11-07T12:30:19.175Z,0.90
2022-11-07T12:34:43.368Z,1.30
2022-11-07T12:39:03.989Z,1.38
2022-11-07T12:43:48.349Z,0.95
2022-11-07T12:48:10.182Z,2.00
2022-11-07T12:52:17.630Z,0.88
2022-11-07T12:56:25.545Z,1.65
2022-11-07T13:00:30.290Z,4.60
2022-11-07T13:04:35.577Z,1.50
2022-11-07T13:08:49.914Z,1.05
2022-11-07T13:13:10.041Z,1.08
2022-11-07T13:17:15.691Z,0.95
2022-11-07T13:21:17.412Z,0.93
2022-11-07T13:25:18.928Z,0.77
2022-11-07T13:29:39.450Z,1.00
2022-11-07T13:33:40.896Z,1.63
2022-11-07T13:37:47.913Z,1.40
2022-11-07T13:41:50.212Z,0.90
2022-11-07T13:46:01.271Z,1.00
2022-11-07T13:50:16.262Z,1.25
2022-11-07T13:54:27.784Z,0.80
2022-11-07T13:58:33.354Z,0.98
2022-11-07T14:02:35.295Z,0.90
2022-11-07T14:06:37.063Z,1.25
2022-11-07T14:10:47.816Z,1.13
2022-11-07T14:14:52.472Z,1.23
2022-11-07T14:19:13.119Z,1.10
2022-11-07T14:23:15.230Z,1.48
2022-11-07T14:27:16.694Z,0.98
2022-11-07T14:31:33.578Z,1.40
2022-11-07T14:35:35.424Z,1.15
2022-11-07T14:39:37.994Z,1.23
2022-11-07T14:43:39.820Z,1.02
2022-11-07T14:47:44.252Z,0.85
2022-11-07T14:51:45.768Z,1.30
2022-11-07T14:55:52.748Z,1.13
2022-11-07T14:59:54.541Z,1.00
2022-11-07T15:04:01.713Z,1.23
2022-11-07T15:08:03.366Z,0.93
2022-11-07T15:12:31.370Z,0.90
2022-11-07T15:16:39.043Z,1.17
2022-11-07T15:20:40.689Z,1.00
2022-11-07T15:24:43.691Z,1.02
2022-11-07T15:28:51.050Z,2.33
2022-11-07T15:32:52.667Z,1.05
2022-11-07T15:36:54.368Z,1.02
2022-11-07T15:40:56.145Z,2.22
2022-11-07T15:44:57.797Z,3.97
2022-11-07T15:48:59.469Z,1.17
2022-11-07T15:53:01.249Z,1.45
2022-11-07T15:57:05.638Z,1.73
2022-11-07T16:01:07.587Z,1.42
2022-11-07T16:05:09.653Z,1.90
2022-11-07T16:09:18.187Z,1.85
2022-11-07T16:13:19.733Z,2.22
2022-11-07T16:17:22.316Z,1.73
2022-11-07T16:21:23.878Z,1.75
2022-11-07T16:25:25.857Z,1.75
2022-11-07T16:29:27.526Z,2.15
2022-11-07T16:33:29.746Z,3.33
2022-11-07T16:37:31.392Z,3.13
2022-11-07T16:41:33.622Z,3.55
2022-11-07T16:45:37.377Z,4.22
2022-11-07T16:49:39.225Z,4.70
2022-11-07T16:53:41.317Z,4.15
2022-11-07T16:57:43.001Z,4.18
2022-11-07T17:01:44.717Z,4.38
2022-11-07T17:05:47.144Z,4.72
2022-11-07T17:09:49.779Z,4.80
2022-11-07T17:13:51.501Z,4.85
2022-11-07T17:17:57.922Z,4.25
2022-11-07T17:22:03.033Z,4.57
2022-11-07T17:26:05.780Z,4.32
2022-11-07T17:30:16.100Z,4.30
2022-11-07T17:34:17.763Z,4.72
2022-11-07T17:38:20.091Z,4.65
2022-11-07T17:42:22.058Z,4.65
2022-11-07T17:46:26.763Z,4.32
2022-11-07T17:50:28.422Z,4.40
2022-11-07T17:54:29.964Z,3.97
2022-11-07T17:58:31.603Z,4.28
2022-11-07T18:02:33.397Z,3.30
2022-11-07T18:06:37.414Z,3.80
2022-11-07T18:10:39.236Z,3.88
2022-11-07T18:14:41.132Z,3.67
2022-11-07T18:18:43.130Z,3.97
2022-11-07T18:22:44.967Z,4.70
2022-11-07T18:26:50.052Z,4.63
2022-11-07T18:30:51.846Z,4.45
2022-11-07T18:34:53.516Z,4.68
2022-11-07T18:51:00.429Z,5.47
2022-11-07T19:00:21.504Z,6.03
2022-11-07T19:05:12.915Z,5.60
2022-11-07T19:09:15.286Z,5.38
2022-11-07T19:13:17.690Z,5.30
2022-11-07T19:17:19.430Z,5.90
2022-11-07T19:21:23.828Z,4.88
2022-11-07T19:25:25.494Z,5.18
2022-11-07T19:34:55.514Z,5.65
2022-11-07T19:38:57.040Z,5.47
2022-11-07T19:43:33.156Z,5.85
2022-11-07T19:47:34.695Z,9.07
2022-11-07T19:51:36.666Z,34.47
2022-11-07T19:55:38.357Z,6.60
2022-11-07T19:59:40.941Z,5.40
2022-11-07T20:03:45.703Z,4.78
2022-11-07T20:07:50.302Z,5.50
2022-11-07T20:13:10.768Z,5.18
2022-11-07T20:17:14.061Z,5.38
2022-11-07T20:21:36.565Z,5.30
2022-11-07T20:26:08.338Z,4.95
2022-11-07T20:30:11.787Z,4.53
2022-11-07T20:35:03.809Z,4.20
2022-11-07T20:40:04.628Z,4.63
2022-11-07T20:44:07.887Z,4.10
2022-11-07T20:48:10.475Z,3.33
2022-11-07T20:52:12.032Z,3.63
2022-11-07T20:56:47.452Z,3.50
2022-11-07T21:00:51.498Z,3.17
2022-11-07T21:05:24.389Z,3.33
2022-11-07T21:10:15.969Z,3.53
2022-11-07T21:14:17.579Z,3.38
2022-11-07T21:18:19.450Z,3.30
2022-11-07T21:22:24.232Z,3.35
2022-11-07T21:26:33.659Z,3.35
2022-11-07T21:30:37.642Z,2.63
2022-11-07T21:34:39.756Z,3.17
2022-11-07T21:38:42.062Z,3.00
2022-11-07T21:43:18.262Z,3.63
2022-11-07T21:47:20.185Z,2.83
2022-11-07T21:51:26.659Z,2.50
2022-11-07T21:55:28.295Z,2.63
2022-11-07T21:59:29.849Z,2.70
2022-11-07T22:03:59.270Z,2.92
2022-11-07T22:07:54.583Z,2.83
2022-11-07T22:11:56.244Z,3.20
2022-11-07T22:16:05.529Z,3.15
2022-11-07T22:20:07.669Z,2.72
2022-11-07T22:24:09.736Z,2.53
2022-11-07T22:28:11.386Z,2.78
2022-11-07T22:32:13.477Z,2.38
2022-11-07T22:36:16.008Z,2.53
2022-11-07T22:40:20.334Z,2.70
2022-11-07T22:44:22.235Z,2.70
2022-11-07T22:48:23.983Z,2.88
2022-11-07T22:52:59.990Z,2.38
2022-11-07T22:57:28.030Z,2.47
2022-11-07T23:01:36.190Z,2.50
2022-11-07T23:05:38.092Z,2.45
2022-11-07T23:09:39.716Z,2.75
2022-11-07T23:13:41.453Z,2.88
2022-11-07T23:17:43.059Z,2.40
2022-11-07T23:21:44.829Z,3.00
2022-11-07T23:25:46.459Z,2.78
2022-11-07T23:29:48.009Z,1.98
2022-11-07T23:33:49.551Z,2.75
2022-11-07T23:37:51.255Z,2.90
2022-11-07T23:41:52.867Z,2.50
2022-11-07T23:46:15.075Z,2.53
2022-11-07T23:50:34.909Z,2.45
2022-11-07T23:54:55.173Z,2.55
2022-11-07T23:59:15.036Z,2.50
